Time;durP1;ratioP1;P1;durP2;ratioP2;P2;SDS_P1;SDS_P2;PMS_P1;PMS_P2;Temp;Humidity;BMP_temperature;BMP_pressure;BME280_temperature;BME280_humidity;BME280_pressure;Samples;Min_cycle;Max_cycle;Signal;HPM_P1;HPM_P2
2021/07/18 00:01:17;;;;;;;6.27;5.40;;;;;;;20.19;71.27;99290.95;531027;1089;116744;-59
2021/07/18 00:11:24;;;;;;;6.27;5.30;;;;;;;20.04;71.58;99275.66;531073;1089;116879;-59
2021/07/18 00:21:31;;;;;;;8.23;6.50;;;;;;;19.88;72.18;99271.13;530417;1089;116809;-58
2021/07/18 00:31:37;;;;;;;7.37;6.67;;;;;;;19.78;73.43;99279.27;531258;1090;117641;-59
2021/07/18 00:41:44;;;;;;;10.63;9.17;;;;;;;19.83;74.25;99268.12;528221;1090;117844;-59
2021/07/18 00:51:51;;;;;;;11.90;9.03;;;;;;;19.84;74.37;99254.64;512384;1089;116947;-59
2021/07/18 01:01:57;;;;;;;9.60;8.67;;;;;;;20.02;74.83;99250.98;525841;1089;116207;-59
2021/07/18 01:12:06;;;;;;;10.50;9.50;;;;;;;20.19;74.95;99245.64;524774;1088;117132;-59
2021/07/18 01:22:13;;;;;;;12.65;10.58;;;;;;;20.37;75.26;99258.77;516934;1089;116280;-60
2021/07/18 01:32:19;;;;;;;16.63;13.73;;;;;;;20.51;75.58;99271.39;531074;1088;119818;-59
2021/07/18 01:42:26;;;;;;;18.37;15.07;;;;;;;20.53;76.18;99271.23;530885;1089;116878;-59
2021/07/18 01:52:32;;;;;;;20.13;18.03;;;;;;;20.58;77.01;99277.71;531115;1089;117195;-59
2021/07/18 02:02:40;;;;;;;26.87;19.40;;;;;;;20.57;77.27;99289.39;531551;1089;117330;-60
2021/07/18 02:12:49;;;;;;;22.30;18.23;;;;;;;20.64;77.39;99289.53;531004;1089;116731;-59
2021/07/18 02:22:56;;;;;;;21.18;17.68;;;;;;;20.64;77.33;99294.87;531143;1089;117388;-59
2021/07/18 02:33:03;;;;;;;19.80;17.63;;;;;;;20.70;77.67;99294.16;530489;1090;116069;-59
2021/07/18 02:43:09;;;;;;;16.87;15.10;;;;;;;20.64;77.57;99284.20;531224;1090;116710;-59
2021/07/18 02:53:15;;;;;;;15.13;13.63;;;;;;;20.60;77.82;99279.38;531085;1090;116976;-60
2021/07/18 03:03:22;;;;;;;19.57;17.50;;;;;;;20.51;77.98;99295.39;530587;1089;117129;-59
2021/07/18 03:13:28;;;;;;;22.70;19.73;;;;;;;20.51;78.21;99311.39;531148;1089;116167;-60
2021/07/18 03:23:35;;;;;;;18.23;16.33;;;;;;;20.46;78.00;99334.23;531074;1088;116755;-60
2021/07/18 03:33:41;;;;;;;17.83;15.43;;;;;;;20.49;78.18;99340.07;530355;1089;117054;-60
2021/07/18 03:43:48;;;;;;;19.20;15.87;;;;;;;20.39;77.74;99334.92;531186;1089;116859;-59
2021/07/18 03:53:54;;;;;;;15.00;12.83;;;;;;;20.34;77.81;99339.91;530577;1089;116674;-55
2021/07/18 04:04:01;;;;;;;15.40;13.20;;;;;;;20.48;77.89;99346.41;531174;1089;116484;-59
2021/07/18 04:14:07;;;;;;;11.03;9.83;;;;;;;20.55;77.14;99363.41;526209;1089;116491;-58
2021/07/18 04:24:13;;;;;;;13.35;8.10;;;;;;;20.66;76.65;99372.03;518621;1088;116931;-59
2021/07/18 04:34:20;;;;;;;10.33;6.37;;;;;;;20.69;76.06;99364.53;531751;1089;116551;-59
2021/07/18 04:44:27;;;;;;;6.47;5.87;;;;;;;20.89;75.76;99356.18;531383;1089;116135;-60
2021/07/18 04:54:33;;;;;;;7.70;7.10;;;;;;;21.49;74.84;99347.77;530494;1089;117699;-61
2021/07/18 05:04:40;;;;;;;8.83;6.07;;;;;;;24.90;72.59;99351.49;531365;1090;117695;-61
2021/07/18 05:14:46;;;;;;;7.73;5.20;;;;;;;28.82;62.50;99354.13;531522;1088;116352;-58
2021/07/18 05:24:53;;;;;;;5.67;4.60;;;;;;;32.74;54.32;99343.09;531108;1089;116285;-61
2021/07/18 05:34:59;;;;;;;5.20;4.60;;;;;;;36.36;47.69;99346.38;531269;1090;117129;-60
2021/07/18 05:45:08;;;;;;;5.08;4.28;;;;;;;37.57;41.93;99349.20;530520;1089;115986;-60
2021/07/18 05:55:15;;;;;;;4.35;3.95;;;;;;;39.37;38.92;99352.30;531314;1090;116786;-61
2021/07/18 06:05:21;;;;;;;5.98;3.78;;;;;;;41.08;36.04;99353.98;531235;1089;115651;-61
2021/07/18 06:15:29;;;;;;;5.30;3.50;;;;;;;43.12;31.76;99361.18;530724;1089;116234;-61
2021/07/18 06:25:36;;;;;;;3.73;3.53;;;;;;;43.23;29.95;99358.10;531808;1089;116112;-61
2021/07/18 06:35:42;;;;;;;4.13;3.73;;;;;;;44.07;28.48;99360.66;531223;1089;115733;-61
2021/07/18 06:45:48;;;;;;;4.10;3.60;;;;;;;44.65;27.18;99365.83;530562;1089;117305;-61
2021/07/18 06:55:55;;;;;;;3.43;3.13;;;;;;;46.01;26.03;99383.54;531277;1089;117107;-61
2021/07/18 07:06:02;;;;;;;3.90;3.50;;;;;;;47.81;23.10;99375.61;530588;1090;117125;-61
2021/07/18 07:16:10;;;;;;;4.20;3.90;;;;;;;46.65;22.54;99380.52;519663;1088;116850;-59
2021/07/18 07:26:16;;;;;;;;;;;;;;;47.04;21.90;99375.39;531726;1088;116387;-60
2021/07/18 07:36:23;;;;;;;4.63;4.15;;;;;;;45.24;22.64;99376.39;531093;1089;102767;-60
2021/07/18 07:46:29;;;;;;;4.53;4.23;;;;;;;46.40;21.43;99369.41;531099;1090;116525;-59
2021/07/18 07:56:36;;;;;;;3.40;3.20;;;;;;;46.38;20.73;99383.61;531214;1088;116175;-61
2021/07/18 08:06:42;;;;;;;4.20;3.87;;;;;;;39.72;23.68;99366.63;530479;1088;116507;-61
2021/07/18 08:16:50;;;;;;;5.07;4.67;;;;;;;33.89;29.65;99370.52;526304;1088;116685;-62
2021/07/18 08:27:01;;;;;;;5.50;5.10;;;;;;;32.06;33.12;99376.58;517588;1089;10113816;-59
2021/07/18 08:37:08;;;;;;;3.93;3.67;;;;;;;31.68;33.04;99383.47;531052;1089;158192;-61
2021/07/18 08:47:16;;;;;;;3.85;3.55;;;;;;;31.14;33.31;99377.27;531261;1089;115963;-60
2021/07/18 08:57:24;;;;;;;4.38;4.08;;;;;;;30.18;34.79;99383.78;530506;1088;116844;-59
2021/07/18 09:07:31;;;;;;;5.67;4.63;;;;;;;30.13;36.67;99386.35;531139;1090;116704;-58
2021/07/18 09:17:36;;;;;;;;;;;;;;;30.11;37.68;99381.19;531230;1089;115992;-59
2021/07/18 09:27:46;;;;;;;5.50;5.00;;;;;;;28.88;39.87;99382.96;531086;1088;103096;-59
2021/07/18 09:37:53;;;;;;;5.85;5.35;;;;;;;29.00;40.54;99398.42;531891;1089;116296;-60
2021/07/18 09:48:02;;;;;;;5.48;4.98;;;;;;;29.76;40.07;99379.19;530644;1089;117740;-60
2021/07/18 09:58:09;;;;;;;5.50;4.87;;;;;;;30.15;39.01;99373.44;531353;1089;116604;-60
2021/07/18 10:08:15;;;;;;;5.78;5.18;;;;;;;29.89;39.06;99370.88;531308;1088;116353;-59
2021/07/18 10:18:22;;;;;;;4.68;4.28;;;;;;;29.42;39.83;99365.27;530560;1089;116717;-59
2021/07/18 10:28:29;;;;;;;5.40;4.90;;;;;;;29.75;39.46;99358.61;531627;1089;115791;-60
2021/07/18 10:38:37;;;;;;;4.90;4.50;;;;;;;29.64;38.74;99360.20;531122;1089;116683;-59
2021/07/18 10:48:46;;;;;;;4.07;3.83;;;;;;;29.41;38.93;99369.84;530585;1089;116398;-60
2021/07/18 10:58:54;;;;;;;3.90;3.50;;;;;;;29.00;38.81;99356.00;531203;1090;116815;-60
2021/07/18 11:09:17;;;;;;;3.53;3.30;;;;;;;28.85;39.30;99360.97;530539;1089;116123;-60
2021/07/18 11:19:57;;;;;;;4.67;4.27;;;;;;;28.61;40.02;99355.36;531522;1090;116484;-61
2021/07/18 11:30:06;;;;;;;5.30;4.83;;;;;;;28.83;40.64;99349.56;530322;1090;116654;-59
2021/07/18 11:40:13;;;;;;;10.57;6.73;;;;;;;28.85;40.75;99347.45;531258;1089;116194;-60
2021/07/18 11:50:21;;;;;;;4.95;4.40;;;;;;;28.73;40.77;99340.06;531153;1090;117584;-59
2021/07/18 12:00:28;;;;;;;7.27;4.93;;;;;;;28.65;41.66;99324.15;530486;1088;117258;-60
2021/07/18 12:10:34;;;;;;;6.05;5.45;;;;;;;29.48;42.13;99310.29;531368;1090;117092;-58
2021/07/18 12:20:41;;;;;;;5.55;5.08;;;;;;;29.71;41.89;99308.70;531296;1089;116354;-60
2021/07/18 12:30:47;;;;;;;5.38;4.88;;;;;;;29.66;41.13;99300.47;530412;1089;117539;-60
2021/07/18 12:40:59;;;;;;;6.10;5.53;;;;;;;29.15;40.98;99288.05;531125;1090;115741;-59
2021/07/18 12:51:16;;;;;;;8.33;5.77;;;;;;;28.85;42.34;99285.31;530569;1090;116118;-59
2021/07/18 13:01:29;;;;;;;6.77;6.17;;;;;;;28.98;42.46;99282.45;531333;1088;118045;-59
2021/07/18 13:11:38;;;;;;;7.50;6.50;;;;;;;28.55;42.82;99278.77;531513;1089;117328;-59
2021/07/18 13:21:57;;;;;;;9.63;4.90;;;;;;;28.88;41.63;99279.45;531028;1088;116028;-60
2021/07/18 13:32:12;;;;;;;6.37;5.83;;;;;;;28.84;41.57;99265.56;531458;1089;116464;-60
2021/07/18 13:42:18;;;;;;;6.33;5.20;;;;;;;28.66;41.42;99259.11;530686;1089;115807;-60
2021/07/18 13:52:25;;;;;;;5.60;5.10;;;;;;;28.34;41.47;99251.16;531314;1089;116392;-60
2021/07/18 14:02:31;;;;;;;5.78;5.23;;;;;;;28.29;40.91;99251.02;531330;1089;149816;-60
2021/07/18 14:12:38;;;;;;;6.30;5.50;;;;;;;27.97;40.25;99249.19;530642;1088;117630;-58
2021/07/18 14:22:45;;;;;;;6.97;5.20;;;;;;;28.04;40.43;99259.91;531808;1089;117404;-60
2021/07/18 14:32:51;;;;;;;5.48;4.93;;;;;;;27.82;40.40;99246.02;531512;1089;116268;-60
2021/07/18 14:42:56;;;;;;;;;;;;;;;27.54;40.70;99244.58;531313;1089;116922;-60
2021/07/18 14:53:05;;;;;;;4.57;4.17;;;;;;;27.47;40.66;99243.76;531537;1089;102522;-60
2021/07/18 15:03:11;;;;;;;5.63;5.13;;;;;;;27.28;40.82;99246.36;530506;1089;117121;-60
2021/07/18 15:13:18;;;;;;;6.13;5.50;;;;;;;27.38;41.04;99235.93;531275;1089;117389;-60
2021/07/18 15:23:25;;;;;;;7.07;5.30;;;;;;;27.42;41.90;99230.94;531523;1089;116023;-60
2021/07/18 15:33:32;;;;;;;5.18;4.30;;;;;;;27.49;42.14;99245.20;530999;1089;117152;-59
2021/07/18 15:43:38;;;;;;;5.33;3.48;;;;;;;27.62;40.96;99241.59;531186;1088;116580;-60
2021/07/18 15:53:44;;;;;;;3.63;2.80;;;;;;;27.45;39.81;99243.97;531237;1090;116384;-60
2021/07/18 16:03:51;;;;;;;3.13;2.63;;;;;;;27.34;38.92;99250.89;530517;1088;116001;-59
2021/07/18 16:13:57;;;;;;;7.07;3.67;;;;;;;27.23;39.96;99254.28;531213;1090;116694;-60
2021/07/18 16:24:04;;;;;;;4.43;4.03;;;;;;;27.26;40.95;99257.38;530500;1089;115917;-60
2021/07/18 16:34:10;;;;;;;6.58;5.65;;;;;;;27.17;41.38;99253.28;531725;1089;117718;-60
2021/07/18 16:44:17;;;;;;;7.40;6.30;;;;;;;27.14;41.66;99251.83;531445;1089;116916;-59
2021/07/18 16:54:23;;;;;;;8.53;6.97;;;;;;;27.06;42.38;99260.16;520035;1089;117884;-60
2021/07/18 17:04:29;;;;;;;10.97;8.80;;;;;;;26.74;42.64;99259.23;531344;1089;115546;-60
2021/07/18 17:14:36;;;;;;;8.83;7.88;;;;;;;26.33;42.96;99255.84;531435;1088;116135;-60
2021/07/18 17:24:43;;;;;;;9.50;6.37;;;;;;;26.02;43.34;99258.13;531156;1088;116693;-60
2021/07/18 17:34:50;;;;;;;8.23;5.60;;;;;;;25.80;44.46;99261.02;531507;1089;116456;-60
2021/07/18 17:44:56;;;;;;;9.17;4.10;;;;;;;25.66;44.61;99273.63;530562;1089;115880;-59
2021/07/18 17:55:03;;;;;;;3.87;3.20;;;;;;;25.49;45.44;99270.50;531384;1089;116728;-60
2021/07/18 18:05:12;;;;;;;3.30;2.85;;;;;;;25.32;45.76;99278.92;531289;1089;117135;-58
2021/07/18 18:15:19;;;;;;;5.55;2.35;;;;;;;25.14;46.75;99274.13;530555;1089;117534;-59
2021/07/18 18:25:25;;;;;;;4.93;2.88;;;;;;;24.87;47.40;99276.69;531666;1089;116775;-60
2021/07/18 18:35:34;;;;;;;3.30;2.30;;;;;;;24.65;47.72;99269.77;531510;1088;116673;-58
2021/07/18 18:45:40;;;;;;;4.03;1.97;;;;;;;24.33;48.46;99270.17;530484;1089;116436;-60
2021/07/18 18:55:47;;;;;;;3.77;2.40;;;;;;;23.99;49.92;99279.80;531303;1089;117053;-62
2021/07/18 19:05:54;;;;;;;5.00;2.33;;;;;;;23.68;50.46;99286.36;530949;1089;117048;-56
2021/07/18 19:16:02;;;;;;;4.40;2.10;;;;;;;23.42;51.03;99277.86;530931;1089;182277;-61
2021/07/18 19:26:08;;;;;;;3.90;2.60;;;;;;;23.18;51.59;99284.34;513006;1089;20000953;-61
2021/07/18 19:36:15;;;;;;;15.70;4.30;;;;;;;22.95;52.31;99282.64;530197;1089;116753;-62
2021/07/18 19:46:22;;;;;;;2.30;1.90;;;;;;;22.73;52.97;99281.75;530996;1089;116805;-61
2021/07/18 19:56:28;;;;;;;4.57;2.20;;;;;;;22.51;53.50;99290.52;531000;1090;116234;-61
2021/07/18 20:06:36;;;;;;;4.53;1.97;;;;;;;22.32;53.82;99289.16;530101;1090;117766;-61
2021/07/18 20:16:42;;;;;;;4.73;2.10;;;;;;;22.20;54.51;99296.81;530942;1088;116255;-60
2021/07/18 20:26:49;;;;;;;4.13;1.97;;;;;;;22.03;54.99;99305.98;531283;1090;116491;-60
2021/07/18 20:36:55;;;;;;;6.70;2.43;;;;;;;21.83;55.36;99317.18;531280;1089;116922;-60
2021/07/18 20:47:01;;;;;;;4.53;2.47;;;;;;;21.60;55.80;99343.84;531041;1089;115558;-59
2021/07/18 20:57:09;;;;;;;5.03;1.80;;;;;;;21.40;56.25;99345.13;530433;1090;117392;-59
2021/07/18 21:07:15;;;;;;;2.90;1.50;;;;;;;21.18;56.46;99345.91;531218;1090;116115;-60
2021/07/18 21:17:23;;;;;;;1.83;1.20;;;;;;;20.92;57.26;99353.16;531220;1088;116210;-60
2021/07/18 21:27:30;;;;;;;10.83;2.33;;;;;;;20.71;57.44;99362.52;524386;1088;115982;-59
2021/07/18 21:37:36;;;;;;;8.03;2.13;;;;;;;20.52;57.67;99371.72;521988;1090;117113;-57
2021/07/18 21:47:43;;;;;;;6.83;2.93;;;;;;;20.32;58.54;99389.91;531328;1090;116493;-58
2021/07/18 21:57:52;;;;;;;6.97;2.93;;;;;;;20.14;58.87;99387.41;531012;1089;115610;-58
2021/07/18 22:07:59;;;;;;;4.43;2.83;;;;;;;19.94;59.29;99397.55;531281;1090;117163;-57
2021/07/18 22:18:08;;;;;;;6.20;3.40;;;;;;;19.68;60.14;99398.45;530361;1090;116603;-57
2021/07/18 22:28:15;;;;;;;4.57;3.40;;;;;;;19.55;60.53;99407.73;523734;1089;116158;-58
2021/07/18 22:38:22;;;;;;;4.73;4.23;;;;;;;19.35;60.94;99417.00;531663;1088;116092;-58
2021/07/18 22:48:28;;;;;;;7.83;4.30;;;;;;;19.15;61.60;99428.69;519965;1090;116186;-58
2021/07/18 22:58:34;;;;;;;10.57;4.93;;;;;;;19.00;62.29;99443.58;516348;1089;115613;-59
2021/07/18 23:08:41;;;;;;;7.20;4.27;;;;;;;18.74;62.72;99425.77;517525;1089;116189;-58
2021/07/18 23:18:47;;;;;;;8.27;5.47;;;;;;;18.60;62.53;99443.10;530889;1089;116556;-58
2021/07/18 23:28:54;;;;;;;6.70;5.37;;;;;;;18.44;62.71;99441.14;531231;1089;116759;-59
2021/07/18 23:39:00;;;;;;;10.23;6.40;;;;;;;18.34;62.71;99454.53;530375;1090;118013;-59
2021/07/18 23:49:07;;;;;;;8.03;6.70;;;;;;;18.19;62.99;99464.84;531230;1089;116263;-60
2021/07/18 23:59:13;;;;;;;8.00;7.10;;;;;;;18.03;63.47;99455.73;528368;1089;116441;-59
